旭川空港の過去48時間の天気

旭川空港 (Asahikawa (Civil))

現在時刻: 4/26 20:21 JST (4/26 11:21 UTC) 以下の時間は現地時間です。

過去48時間のMETAR気象情報
時間 風向 風速(m/s) 視程 気温(℃) 湿度(%) 気圧(hPa) 天気現象
26 20:00 南東 3 10km以上 6 70 1002
26 19:00 南東 2 10km以上 7 70 1001
26 18:00 北北西 1 10km以上 11 62 1001
26 17:00 不定 1 10km以上 13 44 1001
26 16:00 北西 4 10km以上 13 44 1001
26 15:00 西北西 5 10km以上 12 47 1001
26 14:00 北西 5 10km以上 11 58 1001
26 13:00 北北西 5 10km以上 11 62 1000
26 12:00 北北西 4 10km以上 9 62 1001
26 11:00 北北西 5 10km以上 8 76 1001 弱いしゅう雨
26 10:00 北北西 5 10km以上 8 66 1001 弱いしゅう雨
26 09:00 北西 5 10km以上 8 71 1000 弱いしゅう雨
26 08:00 北北西 5 10km以上 7 76 1000
26 07:00 北北西 5 10km以上 7 76 1001
26 06:40 北北西 5 10km以上 6 76 1001
25 20:00 4 10km以上 7 66 1006 弱いしゅう雨
25 19:00 5 10km以上 7 70 1005 弱いしゅう雨
25 18:00 南南西 4 10km以上 8 66 1006 弱いしゅう雨
25 17:00 南南西 3 10km以上 9 66 1006 弱いしゅう雨
25 16:00 南南東 6 10km以上 10 58 1007 弱いしゅう雨
25 15:00 南南東 8 10km以上 11 50 1008 弱いしゅう雨
25 14:00 南南西 4 10km以上 12 50 1008
25 13:00 南南西 5 10km以上 12 47 1009
25 12:00 南南西 4 10km以上 12 44 1009
25 11:00 不定 2 10km以上 12 50 1010
25 10:00 不定 1 10km以上 10 66 1011
25 09:00 不定 1 10km以上 7 81 1012
25 08:00 不定 1 10km以上 5 87 1012
25 07:00 北西 1 10km以上 4 93 1013
25 06:40 不定 1 10km以上 4 87 1013
RJEC 261100Z 13006KT 9999 FEW040 06/01 Q1002
RJEC 261000Z 13003KT 070V150 9999 FEW040 07/02 Q1001
RJEC 260900Z 34002KT 9999 FEW040 11/04 Q1001
RJEC 260800Z VRB02KT 9999 FEW040 13/01 Q1001
RJEC 260700Z 32008KT 280V350 9999 FEW035 SCT/// 13/01 Q1001
RJEC 260600Z 30009KT 250V330 9999 FEW035 SCT120 BKN/// 12/01 Q1001
RJEC 260500Z 31009KT 9999 FEW020 SCT035 BKN080 11/03 Q1001
RJEC 260400Z 33009KT 300V020 9999 FEW020 SCT035 BKN100 11/04 Q1000
RJEC 260300Z 33007KT 9999 FEW020 SCT030 BKN040 09/02 Q1001
RJEC 260200Z 33009KT 9999 -SHRA FEW015 SCT025 BKN035 08/04 Q1001
RJEC 260100Z 33010KT 9999 -SHRA FEW020 SCT030 BKN045 08/02 Q1001
RJEC 260000Z 32009KT 9999 -SHRA FEW015 SCT030 BKN045 08/03 Q1000
RJEC 252300Z 33009KT 310V010 9999 FEW015 BKN050 BKN080 07/03 Q1000
RJEC 252200Z 33010KT 9999 FEW008 SCT040 BKN050 07/03 Q1001
RJEC 252140Z 33010KT 9999 FEW005 SCT040 BKN050 06/02 Q1001 RMK 1ST005 3CU040 6CU050 A2956
RJEC 251100Z 19007KT 9999 -SHRA FEW015 SCT040 BKN080 07/01 Q1006
RJEC 251000Z 19010KT 9999 -SHRA FEW015 SCT040 BKN080 07/02 Q1005
RJEC 250900Z 20008KT 9999 -SHRA FEW015 SCT040 BKN080 08/02 Q1006
RJEC 250800Z 21006KT 9999 -SHRA FEW020 SCT040 BKN080 09/03 Q1006
RJEC 250700Z 15012KT 9999 -SHRA FEW025 SCT045 BKN060 10/02 Q1007
RJEC 250600Z 16015KT 9999 -SHRA FEW025 SCT045 BKN060 11/01 Q1008
RJEC 250500Z 20008KT 160V230 9999 FEW030 SCT070 BKN080 12/02 Q1008
RJEC 250400Z 21009KT 9999 FEW040 SCT100 BKN120 12/01 Q1009
RJEC 250300Z 20007KT 160V230 9999 FEW030 SCT120 BKN/// 12/00 Q1009
RJEC 250200Z VRB04KT 9999 FEW030 SCT130 BKN/// 12/02 Q1010
RJEC 250100Z VRB01KT 9999 FEW040 BKN140 10/04 Q1011
RJEC 250000Z VRB01KT 9999 FEW050 BKN140 07/04 Q1012
RJEC 242300Z VRB02KT 9999 FEW040 BKN140 05/03 Q1012
RJEC 242200Z 31002KT 9999 FEW005 BKN150 04/03 Q1013
RJEC 242140Z VRB02KT 9999 FEW005 BKN150 04/02 Q1013 RMK 1ST005 7AC150 A2992